sensor_id;sensor_type;location;lat;lon;timestamp;temperature;humidity
10441;DHT22;5268;49.346;9.522;2023-08-24T03:09:54;18.90;97.00
10441;DHT22;5268;49.346;9.522;2023-08-24T03:14:56;18.90;96.70
10441;DHT22;5268;49.346;9.522;2023-08-24T03:19:58;18.90;99.60
10441;DHT22;5268;49.346;9.522;2023-08-24T03:25:02;18.80;97.50
10441;DHT22;5268;49.346;9.522;2023-08-24T03:30:05;18.80;96.80
10441;DHT22;5268;49.346;9.522;2023-08-24T03:35:08;18.80;98.50
10441;DHT22;5268;49.346;9.522;2023-08-24T03:40:12;18.70;96.90
10441;DHT22;5268;49.346;9.522;2023-08-24T03:45:14;18.70;96.60
10441;DHT22;5268;49.346;9.522;2023-08-24T03:50:16;18.70;96.10
10441;DHT22;5268;49.346;9.522;2023-08-24T03:55:20;18.60;96.30
10441;DHT22;5268;49.346;9.522;2023-08-24T04:00:23;18.60;96.30
10441;DHT22;5268;49.346;9.522;2023-08-24T04:05:26;18.50;96.30
10441;DHT22;5268;49.346;9.522;2023-08-24T04:10:30;18.40;98.60
10441;DHT22;5268;49.346;9.522;2023-08-24T04:15:32;18.20;99.30
10441;DHT22;5268;49.346;9.522;2023-08-24T04:20:34;18.10;99.60
10441;DHT22;5268;49.346;9.522;2023-08-24T04:25:40;17.70;99.90
10441;DHT22;5268;49.346;9.522;2023-08-24T04:30:49;17.80;98.70
10441;DHT22;5268;49.346;9.522;2023-08-24T04:35:52;17.80;98.00
10441;DHT22;5268;49.346;9.522;2023-08-24T04:40:56;17.90;99.90
10441;DHT22;5268;49.346;9.522;2023-08-24T04:45:58;17.90;99.10
10441;DHT22;5268;49.346;9.522;2023-08-24T04:51:00;18.00;99.00
10441;DHT22;5268;49.346;9.522;2023-08-24T04:56:04;18.00;97.80
10441;DHT22;5268;49.346;9.522;2023-08-24T05:01:06;18.20;97.70
10441;DHT22;5268;49.346;9.522;2023-08-24T05:06:08;18.30;99.90
10441;DHT22;5268;49.346;9.522;2023-08-24T05:11:16;18.40;98.80
10441;DHT22;5268;49.346;9.522;2023-08-24T05:16:18;18.50;99.10
10441;DHT22;5268;49.346;9.522;2023-08-24T05:21:21;18.60;98.50
10441;DHT22;5268;49.346;9.522;2023-08-24T05:26:26;18.70;99.10
10441;DHT22;5268;49.346;9.522;2023-08-24T05:31:28;18.80;98.90
10441;DHT22;5268;49.346;9.522;2023-08-24T05:36:29;18.90;99.90
10441;DHT22;5268;49.346;9.522;2023-08-24T05:41:33;19.00;99.50
10441;DHT22;5268;49.346;9.522;2023-08-24T05:46:36;19.10;99.30
10441;DHT22;5268;49.346;9.522;2023-08-24T05:51:38;19.20;99.90
10441;DHT22;5268;49.346;9.522;2023-08-24T05:56:42;19.20;99.90
10441;DHT22;5268;49.346;9.522;2023-08-24T06:01:44;19.10;99.90
10441;DHT22;5268;49.346;9.522;2023-08-24T06:06:45;18.90;99.90
10441;DHT22;5268;49.346;9.522;2023-08-24T06:11:49;18.70;99.90
10441;DHT22;5268;49.346;9.522;2023-08-24T06:16:52;18.80;99.90
10441;DHT22;5268;49.346;9.522;2023-08-24T06:21:54;19.10;99.90
10441;DHT22;5268;49.346;9.522;2023-08-24T06:26:58;19.50;99.90
10441;DHT22;5268;49.346;9.522;2023-08-24T06:32:00;19.80;99.90
10441;DHT22;5268;49.346;9.522;2023-08-24T06:37:02;20.10;99.90
10441;DHT22;5268;49.346;9.522;2023-08-24T06:42:06;20.30;99.90
10441;DHT22;5268;49.346;9.522;2023-08-24T06:47:08;20.30;99.90
10441;DHT22;5268;49.346;9.522;2023-08-24T06:52:10;20.40;99.90
10441;DHT22;5268;49.346;9.522;2023-08-24T06:57:13;20.60;99.90
10441;DHT22;5268;49.346;9.522;2023-08-24T07:02:15;20.70;99.90
10441;DHT22;5268;49.346;9.522;2023-08-24T07:07:18;20.70;99.90
10441;DHT22;5268;49.346;9.522;2023-08-24T07:12:22;21.00;99.90
10441;DHT22;5268;49.346;9.522;2023-08-24T07:17:24;21.50;99.90
10441;DHT22;5268;49.346;9.522;2023-08-24T07:22:26;21.80;99.90
10441;DHT22;5268;49.346;9.522;2023-08-24T07:27:29;22.30;99.90
10441;DHT22;5268;49.346;9.522;2023-08-24T07:32:31;22.40;99.90
10441;DHT22;5268;49.346;9.522;2023-08-24T07:37:34;22.40;99.90
10441;DHT22;5268;49.346;9.522;2023-08-24T07:42:44;22.50;99.90
10441;DHT22;5268;49.346;9.522;2023-08-24T07:47:46;22.60;99.90
10441;DHT22;5268;49.346;9.522;2023-08-24T07:52:48;22.50;99.90
10441;DHT22;5268;49.346;9.522;2023-08-24T07:57:51;22.60;99.90
10441;DHT22;5268;49.346;9.522;2023-08-24T08:02:53;22.80;99.90
10441;DHT22;5268;49.346;9.522;2023-08-24T08:07:55;22.90;99.90
10441;DHT22;5268;49.346;9.522;2023-08-24T08:12:58;23.00;99.90
10441;DHT22;5268;49.346;9.522;2023-08-24T08:18:00;23.20;99.90
10441;DHT22;5268;49.346;9.522;2023-08-24T08:23:03;23.80;99.90
10441;DHT22;5268;49.346;9.522;2023-08-24T08:28:07;24.40;99.90
10441;DHT22;5268;49.346;9.522;2023-08-24T08:33:09;25.00;99.90
10441;DHT22;5268;49.346;9.522;2023-08-24T08:38:11;25.30;99.90
10441;DHT22;5268;49.346;9.522;2023-08-24T08:43:14;25.80;99.90
10441;DHT22;5268;49.346;9.522;2023-08-24T08:48:16;26.20;99.90
10441;DHT22;5268;49.346;9.522;2023-08-24T08:53:21;26.40;99.90
10441;DHT22;5268;49.346;9.522;2023-08-24T08:58:25;26.80;99.90
10441;DHT22;5268;49.346;9.522;2023-08-24T09:03:29;27.30;99.90
10441;DHT22;5268;49.346;9.522;2023-08-24T09:08:32;27.40;99.40
10441;DHT22;5268;49.346;9.522;2023-08-24T09:13:36;27.80;99.90
10441;DHT22;5268;49.346;9.522;2023-08-24T09:18:39;27.90;99.40
10441;DHT22;5268;49.346;9.522;2023-08-24T09:23:44;28.00;99.90
10441;DHT22;5268;49.346;9.522;2023-08-24T09:28:48;28.30;99.30
10441;DHT22;5268;49.346;9.522;2023-08-24T09:33:49;28.30;97.90
10441;DHT22;5268;49.346;9.522;2023-08-24T09:38:51;27.90;97.30
10441;DHT22;5268;49.346;9.522;2023-08-24T09:43:55;28.10;97.10
10441;DHT22;5268;49.346;9.522;2023-08-24T09:49:05;28.20;98.50
10441;DHT22;5268;49.346;9.522;2023-08-24T09:54:09;28.50;98.30
10441;DHT22;5268;49.346;9.522;2023-08-24T09:59:14;28.90;97.10
10441;DHT22;5268;49.346;9.522;2023-08-24T10:04:22;29.30;98.10
10441;DHT22;5268;49.346;9.522;2023-08-24T10:09:30;29.40;98.30
10441;DHT22;5268;49.346;9.522;2023-08-24T10:14:39;29.70;98.20
10441;DHT22;5268;49.346;9.522;2023-08-24T10:19:44;30.00;98.10
10441;DHT22;5268;49.346;9.522;2023-08-24T10:24:48;30.30;98.30
10441;DHT22;5268;49.346;9.522;2023-08-24T10:29:52;30.50;98.10
10441;DHT22;5268;49.346;9.522;2023-08-24T10:34:54;30.60;96.70
10441;DHT22;5268;49.346;9.522;2023-08-24T10:39:56;30.70;97.00
10441;DHT22;5268;49.346;9.522;2023-08-24T10:45:00;30.60;95.60
10441;DHT22;5268;49.346;9.522;2023-08-24T10:50:03;30.80;97.30
10441;DHT22;5268;49.346;9.522;2023-08-24T10:55:22;30.90;94.00
10441;DHT22;5268;49.346;9.522;2023-08-24T11:00:27;30.60;94.80
10441;DHT22;5268;49.346;9.522;2023-08-24T11:05:31;30.80;96.20
10441;DHT22;5268;49.346;9.522;2023-08-24T11:10:46;30.80;94.60
10441;DHT22;5268;49.346;9.522;2023-08-24T11:15:50;30.80;93.90
10441;DHT22;5268;49.346;9.522;2023-08-24T11:20:56;30.70;91.80
10441;DHT22;5268;49.346;9.522;2023-08-24T11:25:59;31.10;94.50
10441;DHT22;5268;49.346;9.522;2023-08-24T11:31:02;31.00;92.90
10441;DHT22;5268;49.346;9.522;2023-08-24T11:36:04;31.10;91.00
10441;DHT22;5268;49.346;9.522;2023-08-24T11:41:11;31.50;91.80
10441;DHT22;5268;49.346;9.522;2023-08-24T11:46:16;31.70;94.40
10441;DHT22;5268;49.346;9.522;2023-08-24T11:51:18;31.60;90.50
10441;DHT22;5268;49.346;9.522;2023-08-24T11:56:20;31.50;90.50
10441;DHT22;5268;49.346;9.522;2023-08-24T12:01:24;31.70;92.80
10441;DHT22;5268;49.346;9.522;2023-08-24T12:06:27;31.80;93.80
10441;DHT22;5268;49.346;9.522;2023-08-24T12:11:35;32.00;92.80
10441;DHT22;5268;49.346;9.522;2023-08-24T12:16:42;32.00;91.60
10441;DHT22;5268;49.346;9.522;2023-08-24T12:21:44;31.90;92.70
10441;DHT22;5268;49.346;9.522;2023-08-24T12:26:55;32.00;93.40
10441;DHT22;5268;49.346;9.522;2023-08-24T12:32:00;31.70;93.60
10441;DHT22;5268;49.346;9.522;2023-08-24T12:37:02;32.00;93.00
10441;DHT22;5268;49.346;9.522;2023-08-24T12:42:05;31.80;93.00
10441;DHT22;5268;49.346;9.522;2023-08-24T12:47:08;31.90;92.90
10441;DHT22;5268;49.346;9.522;2023-08-24T12:52:10;32.00;93.80
10441;DHT22;5268;49.346;9.522;2023-08-24T12:57:12;32.00;92.80
10441;DHT22;5268;49.346;9.522;2023-08-24T13:02:16;31.80;91.50
10441;DHT22;5268;49.346;9.522;2023-08-24T13:07:18;32.00;92.80
10441;DHT22;5268;49.346;9.522;2023-08-24T13:12:20;32.10;92.00
10441;DHT22;5268;49.346;9.522;2023-08-24T13:17:23;32.20;91.40
10441;DHT22;5268;49.346;9.522;2023-08-24T13:22:25;32.10;91.30
10441;DHT22;5268;49.346;9.522;2023-08-24T13:27:27;32.20;92.90
10441;DHT22;5268;49.346;9.522;2023-08-24T13:32:31;32.40;92.70
10441;DHT22;5268;49.346;9.522;2023-08-24T13:37:33;32.20;90.90
10441;DHT22;5268;49.346;9.522;2023-08-24T13:42:35;32.10;91.20
10441;DHT22;5268;49.346;9.522;2023-08-24T13:47:39;32.20;91.80
10441;DHT22;5268;49.346;9.522;2023-08-24T13:52:41;32.50;93.40
10441;DHT22;5268;49.346;9.522;2023-08-24T13:57:43;32.50;92.80
10441;DHT22;5268;49.346;9.522;2023-08-24T14:02:47;32.60;91.70
10441;DHT22;5268;49.346;9.522;2023-08-24T14:07:49;32.30;91.50
10441;DHT22;5268;49.346;9.522;2023-08-24T14:12:51;32.30;90.60
10441;DHT22;5268;49.346;9.522;2023-08-24T14:17:55;32.40;92.90
10441;DHT22;5268;49.346;9.522;2023-08-24T14:22:57;32.70;93.60
10441;DHT22;5268;49.346;9.522;2023-08-24T14:27:59;32.90;93.80
10441;DHT22;5268;49.346;9.522;2023-08-24T14:33:03;32.80;92.80
10441;DHT22;5268;49.346;9.522;2023-08-24T14:38:05;32.60;90.90
10441;DHT22;5268;49.346;9.522;2023-08-24T14:43:07;32.70;93.50
10441;DHT22;5268;49.346;9.522;2023-08-24T14:48:10;32.80;93.80
10441;DHT22;5268;49.346;9.522;2023-08-24T14:53:12;32.80;94.00
10441;DHT22;5268;49.346;9.522;2023-08-24T14:58:14;32.90;94.20
10441;DHT22;5268;49.346;9.522;2023-08-24T15:03:18;32.90;94.50
10441;DHT22;5268;49.346;9.522;2023-08-24T15:08:20;32.90;94.40
10441;DHT22;5268;49.346;9.522;2023-08-24T15:13:22;32.80;94.30
10441;DHT22;5268;49.346;9.522;2023-08-24T15:18:26;32.70;94.40
10441;DHT22;5268;49.346;9.522;2023-08-24T15:23:29;32.50;94.40
10441;DHT22;5268;49.346;9.522;2023-08-24T15:28:36;32.40;94.70
10441;DHT22;5268;49.346;9.522;2023-08-24T15:33:40;32.20;95.00
10441;DHT22;5268;49.346;9.522;2023-08-24T15:38:42;31.90;95.90
10441;DHT22;5268;49.346;9.522;2023-08-24T15:43:44;31.60;96.20
10441;DHT22;5268;49.346;9.522;2023-08-24T15:48:47;31.20;95.70
10441;DHT22;5268;49.346;9.522;2023-08-24T15:53:51;30.60;95.90
10441;DHT22;5268;49.346;9.522;2023-08-24T15:58:53;30.00;96.30
10441;DHT22;5268;49.346;9.522;2023-08-24T16:03:56;29.50;97.40
10441;DHT22;5268;49.346;9.522;2023-08-24T16:08:58;29.10;96.30
10441;DHT22;5268;49.346;9.522;2023-08-24T16:14:01;28.70;96.20
10441;DHT22;5268;49.346;9.522;2023-08-24T16:19:05;28.20;99.90
10441;DHT22;5268;49.346;9.522;2023-08-24T16:24:07;27.80;99.00
10441;DHT22;5268;49.346;9.522;2023-08-24T16:29:10;27.50;99.90
10441;DHT22;5268;49.346;9.522;2023-08-24T16:34:13;27.50;99.20
10441;DHT22;5268;49.346;9.522;2023-08-24T16:39:15;27.40;99.00
10441;DHT22;5268;49.346;9.522;2023-08-24T16:44:17;27.40;98.00
10441;DHT22;5268;49.346;9.522;2023-08-24T16:49:20;27.40;97.30
10441;DHT22;5268;49.346;9.522;2023-08-24T16:54:22;27.30;97.90
10441;DHT22;5268;49.346;9.522;2023-08-24T16:59:25;27.20;98.70
10441;DHT22;5268;49.346;9.522;2023-08-24T17:04:28;27.20;98.30
10441;DHT22;5268;49.346;9.522;2023-08-24T17:09:30;27.20;97.90
10441;DHT22;5268;49.346;9.522;2023-08-24T17:14:32;27.20;98.00
10441;DHT22;5268;49.346;9.522;2023-08-24T17:19:36;27.40;97.70
10441;DHT22;5268;49.346;9.522;2023-08-24T17:24:38;27.40;99.10
10441;DHT22;5268;49.346;9.522;2023-08-24T17:29:40;27.40;99.60
10441;DHT22;5268;49.346;9.522;2023-08-24T17:34:43;27.20;98.80
10441;DHT22;5268;49.346;9.522;2023-08-24T17:39:45;27.20;98.50
10441;DHT22;5268;49.346;9.522;2023-08-24T17:44:47;27.20;98.90
10441;DHT22;5268;49.346;9.522;2023-08-24T17:49:50;27.20;99.20
10441;DHT22;5268;49.346;9.522;2023-08-24T17:54:52;27.10;99.80
10441;DHT22;5268;49.346;9.522;2023-08-24T17:59:54;26.90;99.90
10441;DHT22;5268;49.346;9.522;2023-08-24T18:04:58;26.70;99.90
10441;DHT22;5268;49.346;9.522;2023-08-24T18:09:59;26.60;99.90
10441;DHT22;5268;49.346;9.522;2023-08-24T18:15:02;26.50;99.90
10441;DHT22;5268;49.346;9.522;2023-08-24T18:20:07;26.10;99.90
10441;DHT22;5268;49.346;9.522;2023-08-24T18:25:09;25.80;99.90
10441;DHT22;5268;49.346;9.522;2023-08-24T18:30:12;25.60;99.90
10441;DHT22;5268;49.346;9.522;2023-08-24T18:35:16;25.40;99.90
10441;DHT22;5268;49.346;9.522;2023-08-24T18:40:18;25.20;99.90
10441;DHT22;5268;49.346;9.522;2023-08-24T18:45:20;25.00;99.90
10441;DHT22;5268;49.346;9.522;2023-08-24T18:50:25;24.90;99.90
10441;DHT22;5268;49.346;9.522;2023-08-24T18:55:27;24.80;99.90
10441;DHT22;5268;49.346;9.522;2023-08-24T19:00:29;24.80;99.90
10441;DHT22;5268;49.346;9.522;2023-08-24T19:05:32;24.80;99.90
10441;DHT22;5268;49.346;9.522;2023-08-24T19:10:35;24.80;99.90
10441;DHT22;5268;49.346;9.522;2023-08-24T19:15:37;24.80;99.90
10441;DHT22;5268;49.346;9.522;2023-08-24T19:20:41;24.80;99.90
10441;DHT22;5268;49.346;9.522;2023-08-24T19:25:45;24.80;99.90
10441;DHT22;5268;49.346;9.522;2023-08-24T19:30:47;24.80;99.90
10441;DHT22;5268;49.346;9.522;2023-08-24T19:35:52;24.70;99.90
10441;DHT22;5268;49.346;9.522;2023-08-24T19:40:54;24.70;99.90
10441;DHT22;5268;49.346;9.522;2023-08-24T19:45:55;24.60;99.90
10441;DHT22;5268;49.346;9.522;2023-08-24T19:50:59;24.50;99.90
10441;DHT22;5268;49.346;9.522;2023-08-24T19:56:01;24.50;99.90
10441;DHT22;5268;49.346;9.522;2023-08-24T20:01:03;24.50;99.90
10441;DHT22;5268;49.346;9.522;2023-08-24T20:06:17;24.50;99.90
10441;DHT22;5268;49.346;9.522;2023-08-24T20:11:20;24.40;99.90
10441;DHT22;5268;49.346;9.522;2023-08-24T20:16:22;24.40;99.90
10441;DHT22;5268;49.346;9.522;2023-08-24T20:21:26;24.30;99.90
10441;DHT22;5268;49.346;9.522;2023-08-24T20:26:29;24.20;99.90
10441;DHT22;5268;49.346;9.522;2023-08-24T20:31:31;24.20;99.90
10441;DHT22;5268;49.346;9.522;2023-08-24T20:36:35;24.20;99.90
10441;DHT22;5268;49.346;9.522;2023-08-24T20:41:37;24.20;99.90
10441;DHT22;5268;49.346;9.522;2023-08-24T20:46:38;24.20;99.90
10441;DHT22;5268;49.346;9.522;2023-08-24T20:51:42;24.20;99.90
10441;DHT22;5268;49.346;9.522;2023-08-24T20:56:44;24.20;99.90
10441;DHT22;5268;49.346;9.522;2023-08-24T21:01:46;24.20;99.90
10441;DHT22;5268;49.346;9.522;2023-08-24T21:06:50;24.20;99.90
10441;DHT22;5268;49.346;9.522;2023-08-24T21:11:53;24.20;99.90
10441;DHT22;5268;49.346;9.522;2023-08-24T21:16:55;24.20;99.90
10441;DHT22;5268;49.346;9.522;2023-08-24T21:21:58;24.10;99.90
10441;DHT22;5268;49.346;9.522;2023-08-24T21:27:00;24.10;99.90
10441;DHT22;5268;49.346;9.522;2023-08-24T21:32:03;24.00;99.90
10441;DHT22;5268;49.346;9.522;2023-08-24T21:37:07;24.00;99.90
10441;DHT22;5268;49.346;9.522;2023-08-24T21:42:08;24.00;99.90
10441;DHT22;5268;49.346;9.522;2023-08-24T21:47:10;24.00;99.90
10441;DHT22;5268;49.346;9.522;2023-08-24T21:52:14;24.00;99.90
